Time;durP1;ratioP1;P1;durP2;ratioP2;P2;SDS_P1;SDS_P2;PMS_P1;PMS_P2;Temp;Humidity;BMP_temperature;BMP_pressure;BME280_temperature;BME280_humidity;BME280_pressure;Samples;Min_cycle;Max_cycle;Signal;HPM_P1;HPM_P2
2023/03/06 00:00:41;;;;;;;14.83;12.23;;;3.80;99.90;;;;;;2613528;54;20134;-73
2023/03/06 00:06:28;;;;;;;16.70;13.37;;;3.80;99.90;;;;;;2612173;54;20441;-73
2023/03/06 00:12:16;;;;;;;22.23;15.30;;;3.80;99.90;;;;;;2613896;54;20243;-72
2023/03/06 00:18:05;;;;;;;17.80;13.07;;;3.80;99.90;;;;;;2614596;39;20541;-73
2023/03/06 00:23:52;;;;;;;30.40;19.43;;;3.80;99.90;;;;;;2613421;54;20367;-73
2023/03/06 00:33:42;;;;;;;24.77;15.20;;;3.80;99.90;;;;;;2612415;54;20423;-73
2023/03/06 00:39:29;;;;;;;23.70;16.57;;;3.70;99.90;;;;;;2613081;54;20387;-72
2023/03/06 00:45:17;;;;;;;21.73;17.07;;;3.70;99.90;;;;;;2614299;47;20153;-73
2023/03/06 00:51:05;;;;;;;24.50;16.57;;;3.70;99.90;;;;;;2615099;39;20567;-73
2023/03/06 00:56:53;;;;;;;19.87;14.73;;;3.70;99.90;;;;;;2613230;47;20413;-73
2023/03/06 01:02:41;;;;;;;24.33;15.53;;;3.70;99.90;;;;;;2614103;46;20158;-73
2023/03/06 01:08:29;;;;;;;24.13;14.60;;;3.70;99.90;;;;;;2613045;54;20126;-73
2023/03/06 01:14:18;;;;;;;16.70;13.23;;;3.60;99.90;;;;;;2614604;54;20627;-73
2023/03/06 01:20:06;;;;;;;20.90;13.07;;;3.70;99.90;;;;;;2614570;39;20858;-73
2023/03/06 01:25:54;;;;;;;25.10;13.73;;;3.70;99.90;;;;;;2613522;54;20391;-73
2023/03/06 01:29:08;;;;;;;19.10;13.73;;;3.70;99.90;;;;;;2613300;54;20934;-72
2023/03/06 01:31:34;;;;;;;17.83;13.30;;;3.70;99.90;;;;;;2614311;54;20155;-73
2023/03/06 01:37:22;;;;;;;19.70;15.77;;;3.60;99.90;;;;;;2614160;54;20163;-73
2023/03/06 01:49:38;;;;;;;23.40;17.57;;;3.70;99.90;;;;;;2613452;54;20438;-73
2023/03/06 01:55:32;;;;;;;25.10;18.13;;;3.70;99.90;;;;;;2615099;31;20796;-73
2023/03/06 02:01:20;;;;;;;19.07;14.17;;;3.60;99.90;;;;;;2613572;54;20391;-74
2023/03/06 02:07:09;;;;;;;24.10;15.43;;;3.60;99.90;;;;;;2614288;54;20479;-72
2023/03/06 02:12:57;;;;;;;26.53;17.63;;;3.60;99.90;;;;;;2614114;54;20948;-73
2023/03/06 02:18:45;;;;;;;25.63;15.60;;;3.60;99.90;;;;;;2614519;39;21179;-73
2023/03/06 02:28:10;;;;;;;15.20;11.70;;;3.50;99.90;;;;;;2614155;54;20398;-73
2023/03/06 02:30:36;;;;;;;20.90;14.10;;;3.40;99.90;;;;;;2612283;54;20539;-73
2023/03/06 02:36:24;;;;;;;22.17;15.03;;;3.40;99.90;;;;;;2613668;39;20688;-74
2023/03/06 02:48:41;;;;;;;25.50;16.30;;;3.30;99.90;;;;;;2613777;54;20423;-73
2023/03/06 02:54:29;;;;;;;31.50;20.47;;;3.40;99.90;;;;;;2612586;54;20246;-73
2023/03/06 03:00:18;;;;;;;25.07;19.20;;;3.40;99.90;;;;;;2612727;54;20223;-74
2023/03/06 03:06:06;;;;;;;32.33;20.10;;;3.40;99.90;;;;;;2614178;54;20391;-73
2023/03/06 03:11:54;;;;;;;31.77;20.47;;;3.30;99.90;;;;;;2613542;54;20523;-73
2023/03/06 03:17:42;;;;;;;30.70;21.40;;;3.30;99.90;;;;;;2614415;54;20142;-68
2023/03/06 03:23:29;;;;;;;32.10;20.70;;;3.30;99.90;;;;;;2613384;54;20158;-69
2023/03/06 03:33:38;;;;;;;39.83;23.87;;;3.30;99.90;;;;;;2614467;54;20484;-70
2023/03/06 03:39:26;;;;;;;37.93;23.43;;;3.40;99.90;;;;;;2615219;54;20463;-70
2023/03/06 03:45:13;;;;;;;31.40;22.33;;;3.30;99.90;;;;;;2614619;39;20602;-70
2023/03/06 03:51:10;;;;;;;34.37;22.77;;;3.40;99.90;;;;;;2614339;54;20122;-70
2023/03/06 03:56:58;;;;;;;29.37;19.00;;;3.30;99.90;;;;;;2614320;54;20391;-71
2023/03/06 04:02:46;;;;;;;22.23;11.27;;;3.30;99.90;;;;;;2614219;54;20165;-73
2023/03/06 04:08:34;;;;;;;21.40;15.90;;;3.30;99.90;;;;;;2614281;54;20130;-73
2023/03/06 04:14:22;;;;;;;25.03;16.70;;;3.20;99.90;;;;;;2613260;54;20342;-73
2023/03/06 04:20:10;;;;;;;19.33;13.83;;;3.20;99.90;;;;;;2613485;54;20154;-70
2023/03/06 04:25:58;;;;;;;19.40;13.53;;;3.20;99.90;;;;;;2614610;54;20410;-70
2023/03/06 04:29:08;;;;;;;24.27;14.17;;;3.20;99.90;;;;;;2612520;39;20715;-70
2023/03/06 04:31:34;;;;;;;21.40;13.27;;;3.20;99.90;;;;;;2614675;54;20137;-70
2023/03/06 04:37:24;;;;;;;31.00;16.87;;;3.10;99.90;;;;;;2614398;54;20239;-70
2023/03/06 04:43:12;;;;;;;23.20;15.50;;;3.10;99.90;;;;;;2613995;54;20380;-70
2023/03/06 04:48:59;;;;;;;26.87;18.27;;;3.10;99.90;;;;;;2614045;54;20134;-70
2023/03/06 04:54:47;;;;;;;35.33;21.17;;;3.10;99.90;;;;;;2613569;54;20790;-70
2023/03/06 05:00:35;;;;;;;30.73;19.97;;;3.10;99.90;;;;;;2613348;39;20539;-70
2023/03/06 05:06:22;;;;;;;32.10;23.10;;;3.00;99.90;;;;;;2614572;54;20158;-69
2023/03/06 05:12:10;;;;;;;36.77;21.10;;;3.00;99.90;;;;;;2614460;54;20149;-69
2023/03/06 05:17:58;;;;;;;42.63;23.90;;;2.90;99.90;;;;;;2613945;54;20186;-70
2023/03/06 05:23:46;;;;;;;38.63;23.27;;;3.00;99.90;;;;;;2613663;54;20158;-70
2023/03/06 05:33:39;;;;;;;38.43;20.30;;;3.00;99.90;;;;;;2613688;54;20360;-70
2023/03/06 05:39:27;;;;;;;31.27;20.23;;;2.90;99.90;;;;;;2614367;54;20938;-69
2023/03/06 05:45:15;;;;;;;38.67;23.83;;;2.80;99.90;;;;;;2613552;54;20444;-69
2023/03/06 05:51:04;;;;;;;34.27;22.80;;;2.70;99.90;;;;;;2612637;54;20146;-69
2023/03/06 05:56:52;;;;;;;28.83;17.70;;;2.90;99.90;;;;;;2613762;54;20391;-69
2023/03/06 06:02:42;;;;;;;28.57;19.70;;;2.80;99.90;;;;;;2613570;46;20415;-69
2023/03/06 06:08:30;;;;;;;24.27;18.33;;;2.80;99.90;;;;;;2614196;54;20386;-70
2023/03/06 06:14:18;;;;;;;28.00;17.10;;;2.90;99.90;;;;;;2612719;54;20132;-72
2023/03/06 06:20:06;;;;;;;25.83;16.03;;;2.90;99.90;;;;;;2612142;39;20213;-72
2023/03/06 06:25:54;;;;;;;30.23;15.83;;;2.90;99.90;;;;;;2612441;54;20346;-70
2023/03/06 06:31:52;;;;;;;30.07;18.43;;;3.00;99.90;;;;;;2611404;54;20417;-70
2023/03/06 06:37:42;;;;;;;35.90;21.53;;;3.00;99.90;;;;;;2610771;54;20510;-69
2023/03/06 06:43:28;;;;;;;40.67;23.90;;;3.00;99.90;;;;;;2611101;54;21042;-69
2023/03/06 06:49:16;;;;;;;36.47;19.40;;;3.00;99.90;;;;;;2608594;54;20165;-70
2023/03/06 06:55:04;;;;;;;35.60;21.80;;;3.00;99.90;;;;;;2607560;54;20407;-70
2023/03/06 07:00:51;;;;;;;31.20;20.67;;;3.00;99.90;;;;;;2610973;39;20467;-70
2023/03/06 07:06:39;;;;;;;30.27;18.63;;;3.00;99.90;;;;;;2612713;54;20391;-70
2023/03/06 07:12:31;;;;;;;31.63;19.33;;;3.00;99.90;;;;;;2611986;46;20389;-70
2023/03/06 07:18:18;;;;;;;33.50;21.20;;;3.10;99.90;;;;;;2614280;54;20391;-70
2023/03/06 07:24:06;;;;;;;25.60;16.27;;;3.10;99.90;;;;;;2611038;54;20154;-69
2023/03/06 07:33:41;;;;;;;29.30;15.20;;;3.20;99.90;;;;;;2611646;54;20410;-69
2023/03/06 07:39:29;;;;;;;33.30;20.30;;;3.20;99.90;;;;;;2609095;54;20391;-70
2023/03/06 07:45:17;;;;;;;35.90;21.83;;;3.30;99.90;;;;;;2612497;54;20389;-70
2023/03/06 07:57:32;;;;;;;35.20;19.20;;;3.40;99.90;;;;;;2608575;54;20384;-71
2023/03/06 08:03:22;;;;;;;41.00;20.27;;;3.50;99.90;;;;;;2604203;54;20122;-70
2023/03/06 08:09:08;;;;;;;34.77;21.40;;;3.60;99.90;;;;;;2611631;54;20399;-70
2023/03/06 08:14:56;;;;;;;31.03;19.70;;;3.90;99.90;;;;;;2612189;54;20141;-70
2023/03/06 08:20:43;;;;;;;31.53;18.47;;;3.80;99.90;;;;;;2612055;54;20150;-69
2023/03/06 08:26:31;;;;;;;31.47;19.13;;;3.90;99.90;;;;;;2609789;54;20162;-70
2023/03/06 08:35:40;;;;;;;22.27;12.30;;;4.00;99.90;;;;;;2613387;54;20342;-70
2023/03/06 08:41:29;;;;;;;30.27;18.90;;;3.90;99.90;;;;;;2612853;54;20660;-70
2023/03/06 08:47:17;;;;;;;32.03;19.97;;;4.00;99.90;;;;;;2611561;54;20492;-70
2023/03/06 08:53:04;;;;;;;26.53;16.37;;;3.80;99.90;;;;;;2613247;54;20146;-69
2023/03/06 08:58:53;;;;;;;29.43;18.67;;;3.40;99.90;;;;;;2613173;39;20525;-68
2023/03/06 09:04:40;;;;;;;22.00;13.97;;;3.30;99.90;;;;;;2613032;54;20418;-70
2023/03/06 09:10:28;;;;;;;30.33;18.77;;;3.20;99.90;;;;;;2612413;54;20138;-69
2023/03/06 09:16:16;;;;;;;34.10;21.60;;;3.20;99.90;;;;;;2613305;54;20122;-70
2023/03/06 09:19:00;;;;;;;30.23;19.70;;;3.20;99.90;;;;;;2614173;54;20379;-70
2023/03/06 09:21:27;;;;;;;30.87;20.13;;;3.20;99.90;;;;;;2611957;54;20544;-70
2023/03/06 09:27:15;;;;;;;32.43;20.90;;;3.40;99.90;;;;;;2612934;54;20394;-69
2023/03/06 09:36:24;;;;;;;29.90;21.80;;;3.40;99.90;;;;;;2613338;39;20543;-70
2023/03/06 09:42:17;;;;;;;37.60;25.10;;;3.70;99.90;;;;;;2612972;54;20699;-69
2023/03/06 09:54:43;;;;;;;26.83;20.07;;;3.80;99.90;;;;;;2610497;54;20362;-69
2023/03/06 10:00:38;;;;;;;34.93;22.10;;;3.60;99.90;;;;;;2611203;54;20363;-70
2023/03/06 10:19:49;;;;;;;37.73;26.40;;;3.80;99.90;;;;;;2611867;54;20371;-69
2023/03/06 10:36:29;;;;;;;37.47;25.50;;;4.10;99.90;;;;;;2613543;54;20885;-68
2023/03/06 10:42:16;;;;;;;42.23;25.77;;;4.10;99.90;;;;;;2613002;54;20483;-70
2023/03/06 10:48:10;;;;;;;28.10;19.57;;;4.20;99.90;;;;;;2610653;54;20242;-69
2023/03/06 10:53:59;;;;;;;20.73;16.63;;;4.10;99.90;;;;;;2608976;54;20379;-70
2023/03/06 10:59:54;;;;;;;28.37;19.53;;;4.40;99.90;;;;;;2611918;54;21129;-70
2023/03/06 11:16:02;;;;;;;16.53;14.20;;;5.20;58.50;;;;;;2611127;54;20428;-69
2023/03/06 11:22:02;;;;;;;9.70;8.80;;;4.90;43.90;;;;;;2610357;54;20403;-68
2023/03/06 11:34:57;;;;;;;18.07;13.93;;;5.30;42.70;;;;;;2613002;54;20371;-69
2023/03/06 11:38:04;;;;;;;21.60;16.47;;;5.30;48.80;;;;;;2610101;54;20389;-71
2023/03/06 11:53:37;;;;;;;27.10;20.00;;;5.40;55.00;;;;;;2612291;54;20371;-69
2023/03/06 11:59:27;;;;;;;22.67;17.87;;;5.80;38.80;;;;;;2609584;39;20564;-70
2023/03/06 12:22:43;;;;;;;20.10;16.47;;;5.20;55.80;;;;;;2611898;39;20815;-69
2023/03/06 12:28:54;;;;;;;23.60;17.87;;;7.20;33.10;;;;;;2611902;54;20390;-69
2023/03/06 12:31:56;;;;;;;25.40;16.20;;;8.50;16.70;;;;;;2612739;54;20459;-69
2023/03/06 12:45:18;;;;;;;15.03;13.63;;;7.00;15.30;;;;;;2612832;54;20436;-69
2023/03/06 12:51:09;;;;;;;15.37;13.43;;;6.80;8.80;;;;;;2612200;54;20363;-69
2023/03/06 12:56:58;;;;;;;15.50;13.87;;;6.90;7.60;;;;;;2612659;39;20809;-69
2023/03/06 13:09:30;;;;;;;14.70;13.10;;;6.80;6.50;;;;;;2610986;54;20368;-70
2023/03/06 13:15:23;;;;;;;19.17;11.90;;;7.20;3.50;;;;;;2613227;54;20953;-70
2023/03/06 13:21:48;;;;;;;13.77;12.57;;;7.10;5.00;;;;;;2613157;54;20394;-70
2023/03/06 13:34:40;;;;;;;12.67;11.67;;;7.40;3.40;;;;;;2612239;54;20401;-69
2023/03/06 13:50:47;;;;;;;14.50;13.30;;;9.20;1.00;;;;;;2610331;54;20565;-70
2023/03/06 13:56:46;;;;;;;14.10;12.80;;;9.10;1.00;;;;;;2607657;54;20518;-70
2023/03/06 14:09:29;;;;;;;12.13;11.43;;;9.60;1.00;;;;;;2609431;54;20375;-70
2023/03/06 14:21:56;;;;;;;12.27;11.63;;;8.30;1.00;;;;;;2613667;54;20359;-70
2023/03/06 14:27:51;;;;;;;14.27;13.27;;;8.40;1.00;;;;;;2611005;54;20355;-68
2023/03/06 14:33:49;;;;;;;13.60;12.70;;;8.80;1.00;;;;;;2612778;54;20465;-69
2023/03/06 14:36:59;;;;;;;13.67;12.77;;;8.70;1.00;;;;;;2612157;54;20937;-70
2023/03/06 14:42:46;;;;;;;17.77;16.03;;;7.90;1.00;;;;;;2612567;54;20393;-69
2023/03/06 14:48:44;;;;;;;12.37;11.50;;;7.70;1.00;;;;;;2613130;54;20127;-70
2023/03/06 14:54:35;;;;;;;12.10;11.50;;;7.50;1.00;;;;;;2612077;54;20475;-70
2023/03/06 15:00:31;;;;;;;12.33;11.40;;;7.50;1.00;;;;;;2612098;54;20378;-70
2023/03/06 15:06:23;;;;;;;12.43;11.63;;;7.30;1.00;;;;;;2614322;54;20925;-69
2023/03/06 15:12:20;;;;;;;14.13;13.30;;;7.30;1.00;;;;;;2611669;54;20406;-69
2023/03/06 15:24:40;;;;;;;14.07;13.03;;;7.50;1.00;;;;;;2613603;39;20808;-68
2023/03/06 15:30:34;;;;;;;16.23;14.93;;;7.10;1.00;;;;;;2612403;54;20155;-70
2023/03/06 15:39:47;;;;;;;26.30;20.67;;;6.60;14.30;;;;;;2612500;54;20387;-69
2023/03/06 15:45:35;;;;;;;23.83;20.20;;;6.20;20.30;;;;;;2613056;54;20395;-69
2023/03/06 15:51:23;;;;;;;23.83;19.97;;;5.90;28.80;;;;;;2611360;54;20130;-69
2023/03/06 16:03:44;;;;;;;16.83;12.70;;;5.60;66.60;;;;;;2613372;39;20666;-70
2023/03/06 16:09:32;;;;;;;16.07;11.90;;;4.60;86.20;;;;;;2613271;39;20764;-69
2023/03/06 16:15:24;;;;;;;15.60;11.63;;;4.40;98.10;;;;;;2609799;39;20450;-71
2023/03/06 16:21:12;;;;;;;26.60;14.23;;;4.20;99.90;;;;;;2611752;54;20378;-70
2023/03/06 16:27:01;;;;;;;17.67;13.40;;;4.30;99.90;;;;;;2610355;54;20494;-70
2023/03/06 16:32:49;;;;;;;18.83;14.73;;;4.40;99.90;;;;;;2613321;54;20897;-70
2023/03/06 16:41:59;;;;;;;23.83;18.00;;;4.70;99.90;;;;;;2612033;54;20370;-69
2023/03/06 16:47:47;;;;;;;26.53;18.57;;;4.80;99.90;;;;;;2613486;39;20570;-70
2023/03/06 16:53:35;;;;;;;26.80;18.33;;;4.90;99.90;;;;;;2613253;54;20354;-70
2023/03/06 16:59:23;;;;;;;26.40;18.40;;;4.90;99.90;;;;;;2612737;54;20114;-71
2023/03/06 17:05:11;;;;;;;26.67;17.33;;;4.90;99.90;;;;;;2613179;46;20414;-70
2023/03/06 17:10:59;;;;;;;29.90;18.50;;;4.90;99.90;;;;;;2613084;54;20123;-70
2023/03/06 17:16:46;;;;;;;32.27;20.40;;;4.80;99.90;;;;;;2613871;54;20126;-70
2023/03/06 17:22:35;;;;;;;22.30;15.00;;;4.70;99.90;;;;;;2613823;54;20121;-70
2023/03/06 17:28:22;;;;;;;23.37;17.47;;;4.60;99.90;;;;;;2613218;54;20368;-70
2023/03/06 17:34:10;;;;;;;25.00;18.00;;;4.40;99.90;;;;;;2613745;54;20740;-70
2023/03/06 17:37:28;;;;;;;32.60;20.47;;;4.50;99.90;;;;;;2612233;54;20464;-69
2023/03/06 17:39:54;;;;;;;31.37;20.23;;;4.40;99.90;;;;;;2610450;39;20468;-70
2023/03/06 17:45:42;;;;;;;33.40;20.80;;;4.40;99.90;;;;;;2613994;39;20777;-71
2023/03/06 17:51:30;;;;;;;27.57;18.20;;;4.40;99.90;;;;;;2613392;54;20215;-70
2023/03/06 17:57:17;;;;;;;28.50;20.20;;;4.60;99.90;;;;;;2613420;54;20142;-71
2023/03/06 18:03:06;;;;;;;21.93;13.97;;;4.50;99.90;;;;;;2612921;54;20247;-70
2023/03/06 18:08:53;;;;;;;33.50;18.67;;;4.60;99.90;;;;;;2613550;54;20359;-69
2023/03/06 18:14:42;;;;;;;30.90;19.60;;;4.60;99.90;;;;;;2613982;54;21078;-71
2023/03/06 18:20:29;;;;;;;27.37;18.30;;;4.60;99.90;;;;;;2612719;54;20427;-70
2023/03/06 18:26:19;;;;;;;31.70;20.57;;;4.60;99.90;;;;;;2613443;54;20146;-71
2023/03/06 18:32:09;;;;;;;29.03;19.27;;;4.50;99.90;;;;;;2613025;54;20415;-70
2023/03/06 18:41:59;;;;;;;22.33;15.63;;;4.40;99.90;;;;;;2613125;54;20410;-70
2023/03/06 18:47:47;;;;;;;29.03;20.30;;;4.30;99.90;;;;;;2614448;54;20391;-70
2023/03/06 18:53:35;;;;;;;31.10;21.40;;;4.30;99.90;;;;;;2611849;54;20179;-70
2023/03/06 18:59:24;;;;;;;30.07;17.43;;;4.30;99.90;;;;;;2611489;54;20358;-70
2023/03/06 19:05:12;;;;;;;31.50;19.73;;;4.30;99.90;;;;;;2612110;54;20399;-69
2023/03/06 19:11:02;;;;;;;25.27;14.03;;;4.40;99.90;;;;;;2611788;54;20154;-70
2023/03/06 19:16:50;;;;;;;35.10;18.50;;;4.40;99.90;;;;;;2612497;54;20415;-69
2023/03/06 19:22:38;;;;;;;35.30;19.60;;;4.40;99.90;;;;;;2611924;54;20170;-70
2023/03/06 19:28:26;;;;;;;31.23;18.00;;;4.40;99.90;;;;;;2612425;54;20143;-69
2023/03/06 19:34:14;;;;;;;22.77;15.53;;;4.30;99.90;;;;;;2613974;54;20158;-70
2023/03/06 19:37:29;;;;;;;33.97;20.90;;;4.40;99.90;;;;;;2611778;54;20428;-70
2023/03/06 19:49:20;;;;;;;24.50;17.20;;;4.40;93.90;;;;;;2613812;54;20379;-70
2023/03/06 19:55:09;;;;;;;26.80;17.00;;;4.40;87.00;;;;;;2613253;54;20363;-71
2023/03/06 20:01:09;;;;;;;26.57;18.30;;;4.30;99.90;;;;;;2613608;54;20793;-70
2023/03/06 20:06:58;;;;;;;24.80;15.97;;;4.30;97.30;;;;;;2610767;54;20419;-69
2023/03/06 20:12:46;;;;;;;35.90;19.83;;;4.30;98.90;;;;;;2607479;54;20378;-72
2023/03/06 20:18:33;;;;;;;22.80;14.53;;;4.40;94.30;;;;;;2612577;54;20258;-70
2023/03/06 20:24:21;;;;;;;24.50;14.00;;;4.30;97.00;;;;;;2608805;54;20154;-70
2023/03/06 20:30:10;;;;;;;24.50;15.90;;;4.30;93.80;;;;;;2608312;39;20546;-70
2023/03/06 20:35:57;;;;;;;31.17;17.37;;;4.40;68.20;;;;;;2612802;54;20379;-70
2023/03/06 20:41:45;;;;;;;16.43;12.10;;;4.50;59.50;;;;;;2613272;54;20130;-69
2023/03/06 20:44:32;;;;;;;18.10;11.77;;;4.50;55.10;;;;;;2611467;54;20399;-70
2023/03/06 20:46:58;;;;;;;23.97;14.37;;;4.50;53.30;;;;;;2607286;54;20151;-70
2023/03/06 20:52:46;;;;;;;26.93;15.77;;;4.40;55.90;;;;;;2611615;54;20278;-69
2023/03/06 20:58:34;;;;;;;18.80;10.73;;;4.40;58.10;;;;;;2609232;54;20166;-70
2023/03/06 21:04:22;;;;;;;20.90;11.97;;;4.40;53.30;;;;;;2612878;54;20370;-70
2023/03/06 21:10:10;;;;;;;19.00;13.73;;;4.50;46.60;;;;;;2612469;54;20122;-70
2023/03/06 21:15:58;;;;;;;17.33;12.17;;;4.50;48.10;;;;;;2611688;54;20406;-70
2023/03/06 21:21:46;;;;;;;25.13;14.23;;;4.50;44.50;;;;;;2610376;54;20134;-71
2023/03/06 21:27:33;;;;;;;24.20;16.43;;;4.50;45.60;;;;;;2613292;54;20158;-70
2023/03/06 21:33:21;;;;;;;22.80;15.30;;;4.50;50.90;;;;;;2613555;54;20146;-70
2023/03/06 21:39:09;;;;;;;29.13;19.77;;;4.60;51.30;;;;;;2613997;54;20115;-70
2023/03/06 21:49:02;;;;;;;25.37;11.73;;;4.40;70.90;;;;;;2613816;54;20379;-70
2023/03/06 21:54:50;;;;;;;33.00;14.80;;;4.10;90.80;;;;;;2614301;54;20932;-69
2023/03/06 22:00:37;;;;;;;29.00;16.90;;;3.90;99.90;;;;;;2612827;39;20527;-70
2023/03/06 22:06:27;;;;;;;23.60;15.30;;;3.70;99.90;;;;;;2614545;39;20476;-71
2023/03/06 22:12:15;;;;;;;32.70;19.00;;;3.60;99.90;;;;;;2613725;39;20772;-70
2023/03/06 22:18:03;;;;;;;30.80;19.23;;;3.40;99.90;;;;;;2614353;54;20162;-70
2023/03/06 22:23:52;;;;;;;30.67;18.00;;;3.40;99.90;;;;;;2613465;54;20134;-70
2023/03/06 22:29:40;;;;;;;38.53;20.93;;;3.40;99.90;;;;;;2612690;54;20384;-70
2023/03/06 22:35:28;;;;;;;37.27;21.63;;;3.40;99.90;;;;;;2613100;54;20721;-70
2023/03/06 22:41:17;;;;;;;36.43;24.57;;;3.40;99.90;;;;;;2612565;54;20374;-70
2023/03/06 22:44:32;;;;;;;41.97;24.30;;;3.40;99.90;;;;;;2612754;54;20378;-69
2023/03/06 22:46:58;;;;;;;29.60;18.00;;;3.40;99.90;;;;;;2612866;54;20426;-71
2023/03/06 22:52:45;;;;;;;26.70;14.77;;;3.30;99.90;;;;;;2613781;54;20218;-71
2023/03/06 22:58:36;;;;;;;35.23;22.10;;;3.30;99.90;;;;;;2612655;54;20665;-70
2023/03/06 23:04:23;;;;;;;41.73;24.10;;;3.30;99.90;;;;;;2613375;54;20929;-71
2023/03/06 23:10:11;;;;;;;47.90;20.53;;;3.40;99.90;;;;;;2612992;54;20118;-71
2023/03/06 23:16:06;;;;;;;36.97;22.77;;;3.50;99.90;;;;;;2613457;54;20118;-71
2023/03/06 23:21:54;;;;;;;37.77;23.40;;;3.50;99.90;;;;;;2612201;54;20378;-71
2023/03/06 23:27:42;;;;;;;39.30;21.77;;;3.60;99.90;;;;;;2612786;54;20292;-71
2023/03/06 23:33:29;;;;;;;34.80;20.93;;;3.70;99.90;;;;;;2614445;54;20123;-72
2023/03/06 23:39:17;;;;;;;34.30;20.77;;;3.80;99.90;;;;;;2613099;39;20495;-71
2023/03/06 23:49:05;;;;;;;29.87;18.77;;;3.90;99.90;;;;;;2614338;54;20905;-71
2023/03/06 23:54:52;;;;;;;23.57;15.90;;;4.00;99.90;;;;;;2613666;54;20380;-71
